Hlavní strana
METAR-TAF:

METAR-TAF

Letiště :

Béchar, Alžírsko

zeměpisná šířka: 31-37N, zeměpisná délka: 002-14W, výška: 773 m

Aktuální stav počasí

Zpráva byla vytvořena před 1 hodinou a 8 minutami, v 22:00 UTC
Východoseverovýchodní vítr 12 kt
Teplota 14°C
Vlhkost vzduchu 47%
Tlak 1028 hPa
Viditelnost: 2000 m
Polojasno ve výšce 3300 ft
rozsáhlý prach

METAR: DAOR 242200Z 07012KT 2000 DU SCT033 14/03 Q1028

Čas: 00:08 (23:08 UTC)

Předpověď počasí

Zpráva byla vytvořena před 3 hodinami a 8 minutami, v 20:00 UTC
Předpověď platná od 24 v 21 UTC do 25 v 06 UTC
Východoseverovýchodní vítr 10 kt
Viditelnost: 2500 m
Polojasno ve výšce 3300 ft
rozsáhlý prach
Změna
od 24 v 22 UTC do 25 v 01 UTC
Viditelnost: 6000 m

TAF: DAOR 242000Z 2421/2506 06010KT 2500 DU SCT033 BECMG 2422/2501 6000 NSW

Stav a předpovědi počasí z více než 4 000 letišť (zprávy METAR a TAF).

Červené a žluté tečky na mapě představují dostupné meteorologické stanice.

Když kurzor umístíte na tečku, zobrazí se název stanice.

Pak kliknutím zobrazíte stav a předpověď počasí.

Chcete-li změnit mapu, kliknutím na zelené tlačítko se znaménkem +mapu přiblížíte, kliknutím na zelené tlačítko se znaménkem – mapu oddálíte a kliknutím na zelené šipky přejdete na sousední mapy.


METAR-TAF: